createdAt,value
2022-07-29T00:01:04.128Z,98447.16
2022-07-29T00:03:31.108Z,98459.06
2022-07-29T00:05:57.886Z,98438.31
2022-07-29T00:08:24.529Z,98451.31
2022-07-29T00:10:52.079Z,98440.47
2022-07-29T00:13:18.790Z,98447.13
2022-07-29T00:15:59.082Z,98453.75
2022-07-29T00:18:31.778Z,98446.81
2022-07-29T00:20:58.444Z,98443.81
2022-07-29T00:23:25.156Z,98456.78
2022-07-29T00:25:51.909Z,98421.31
2022-07-29T00:28:18.677Z,98437.47
2022-07-29T00:30:45.411Z,98443.94
2022-07-29T00:33:12.168Z,98434.53
2022-07-29T00:35:44.613Z,98416.59
2022-07-29T00:38:16.289Z,98418.56
2022-07-29T00:40:44.633Z,98440.72
2022-07-29T00:43:12.762Z,98438.75
2022-07-29T00:45:39.682Z,98437.88
2022-07-29T00:48:07.629Z,98436.81
2022-07-29T00:50:34.470Z,98436.75
2022-07-29T00:53:02.057Z,98403.75
2022-07-29T00:55:29.871Z,98395.25
2022-07-29T00:57:58.046Z,98421.19
2022-07-29T01:00:27.149Z,98438.38
2022-07-29T01:02:53.983Z,98419.59
2022-07-29T01:05:23.417Z,98417.13
2022-07-29T01:07:53.614Z,98410.25
2022-07-29T01:10:22.191Z,98434.06
2022-07-29T01:12:51.286Z,98417.13
2022-07-29T01:15:18.385Z,98433.19
2022-07-29T01:18:18.176Z,98432.69
2022-07-29T01:21:18.435Z,98427.69
2022-07-29T01:24:00.169Z,98428.19
2022-07-29T01:26:43.801Z,98434.84
2022-07-29T01:29:38.573Z,98434.25
2022-07-29T01:32:22.535Z,98427.00
2022-07-29T01:35:10.011Z,98434.97
2022-07-29T01:37:44.021Z,98411.16
2022-07-29T01:40:25.081Z,98425.53
2022-07-29T01:42:55.810Z,98402.34
2022-07-29T01:45:39.908Z,98420.97
2022-07-29T01:48:22.574Z,98416.13
2022-07-29T01:50:58.752Z,98410.25
2022-07-29T01:53:36.418Z,98434.25
2022-07-29T01:56:06.075Z,98398.94
2022-07-29T01:58:33.933Z,98413.78
2022-07-29T02:01:01.645Z,98390.25
2022-07-29T02:03:30.304Z,98389.34
2022-07-29T02:05:58.523Z,98395.75
2022-07-29T02:08:26.242Z,98403.75
2022-07-29T02:10:54.672Z,98406.69
2022-07-29T02:13:24.510Z,98393.16
2022-07-29T02:15:53.010Z,98377.56
2022-07-29T02:18:23.696Z,98420.19
2022-07-29T02:20:53.845Z,98412.97
2022-07-29T02:23:23.765Z,98400.19
2022-07-29T02:25:53.836Z,98372.28
2022-07-29T02:28:23.803Z,98389.66
2022-07-29T02:30:53.437Z,98385.44
2022-07-29T02:33:21.957Z,98389.34
2022-07-29T02:35:49.805Z,98396.19
2022-07-29T02:38:36.161Z,98389.44
2022-07-29T02:41:09.694Z,98360.19
2022-07-29T02:43:37.234Z,98375.03
2022-07-29T02:46:28.006Z,98365.28
2022-07-29T02:49:05.330Z,98360.81
2022-07-29T02:52:05.925Z,98390.69
2022-07-29T02:54:42.074Z,98366.19
2022-07-29T02:57:54.549Z,98397.69
2022-07-29T03:00:25.608Z,98396.41
2022-07-29T03:02:55.468Z,98386.44
2022-07-29T03:05:23.620Z,98364.25
2022-07-29T03:08:03.869Z,98398.91
2022-07-29T03:10:31.435Z,98384.38
2022-07-29T03:12:59.219Z,98376.84
2022-07-29T03:15:27.085Z,98407.06
2022-07-29T03:17:54.811Z,98407.25
2022-07-29T03:20:21.989Z,98398.47
2022-07-29T03:22:49.259Z,98399.94
2022-07-29T03:25:17.713Z,98406.91
2022-07-29T03:27:45.360Z,98408.50
2022-07-29T03:30:18.117Z,98399.66
2022-07-29T03:32:48.831Z,98387.50
2022-07-29T03:35:17.539Z,98389.19
2022-07-29T03:37:45.418Z,98400.56
2022-07-29T03:40:17.581Z,98403.84
2022-07-29T03:42:45.762Z,98409.25
2022-07-29T03:45:16.546Z,98417.06
2022-07-29T03:47:50.856Z,98407.59
2022-07-29T03:50:21.330Z,98426.56
2022-07-29T03:52:49.059Z,98391.41
2022-07-29T03:55:16.664Z,98422.66
2022-07-29T03:57:45.576Z,98427.72
2022-07-29T04:00:12.992Z,98417.41
2022-07-29T04:02:41.212Z,98421.00
2022-07-29T04:05:13.724Z,98417.75
2022-07-29T04:07:41.387Z,98409.25
2022-07-29T04:10:08.926Z,98439.75
2022-07-29T04:12:36.207Z,98429.84
2022-07-29T04:15:05.037Z,98419.75
2022-07-29T04:17:31.963Z,98421.91
2022-07-29T04:19:58.938Z,98435.31
2022-07-29T04:22:25.680Z,98413.00
2022-07-29T04:24:54.101Z,98423.69
2022-07-29T04:27:20.825Z,98435.41
2022-07-29T04:29:56.765Z,98435.84
2022-07-29T04:32:25.241Z,98442.94
2022-07-29T04:34:52.245Z,98443.56
2022-07-29T04:37:18.970Z,98434.53
2022-07-29T04:39:45.671Z,98462.84
2022-07-29T04:42:12.392Z,98448.91
2022-07-29T04:44:39.999Z,98453.94
2022-07-29T04:47:10.216Z,98439.09
2022-07-29T04:49:39.513Z,98437.81
2022-07-29T04:52:07.012Z,98464.22
2022-07-29T04:54:34.181Z,98472.56
2022-07-29T04:57:01.001Z,98465.84
2022-07-29T04:59:28.129Z,98468.75
2022-07-29T05:01:55.020Z,98457.78
2022-07-29T05:04:21.771Z,98470.28
2022-07-29T05:06:48.777Z,98473.91
2022-07-29T05:09:15.767Z,98466.44
2022-07-29T05:11:42.486Z,98474.56
2022-07-29T05:14:09.255Z,98463.59
2022-07-29T05:16:36.213Z,98463.06
2022-07-29T05:19:03.010Z,98456.38
2022-07-29T05:21:29.651Z,98469.19
2022-07-29T05:23:56.373Z,98486.59
2022-07-29T05:26:23.308Z,98488.06
2022-07-29T05:28:50.182Z,98488.56
2022-07-29T05:31:17.069Z,98493.97
2022-07-29T05:33:43.836Z,98492.84
2022-07-29T05:36:11.260Z,98482.38
2022-07-29T05:38:38.419Z,98502.84
2022-07-29T05:41:06.309Z,98517.47
2022-07-29T05:43:33.846Z,98497.75
2022-07-29T05:46:00.704Z,98510.53
2022-07-29T05:48:28.201Z,98500.13
2022-07-29T05:50:55.784Z,98521.34
2022-07-29T05:53:22.985Z,98533.00
2022-07-29T05:55:50.592Z,98526.03
2022-07-29T05:58:17.610Z,98495.56
2022-07-29T06:00:45.406Z,98527.75
2022-07-29T06:03:12.527Z,98517.13
2022-07-29T06:05:39.268Z,98521.81
2022-07-29T06:08:09.237Z,98502.16
2022-07-29T06:10:36.629Z,98536.09
2022-07-29T06:13:03.535Z,98504.34
2022-07-29T06:15:30.266Z,98546.69
2022-07-29T06:17:59.269Z,98518.59
2022-07-29T06:20:31.445Z,98543.28
2022-07-29T06:22:58.669Z,98517.03
2022-07-29T06:25:25.395Z,98530.16
2022-07-29T06:27:52.117Z,98517.91
2022-07-29T06:30:18.992Z,98518.41
2022-07-29T06:32:46.015Z,98508.94
2022-07-29T06:35:38.808Z,98510.84
2022-07-29T06:37:59.855Z,98509.09
2022-07-29T06:40:45.722Z,98499.41
2022-07-29T06:43:12.484Z,98537.91
2022-07-29T06:45:42.444Z,98546.69
2022-07-29T06:48:10.371Z,98521.38
2022-07-29T06:50:37.167Z,98532.31
2022-07-29T06:53:04.475Z,98521.38
2022-07-29T06:55:31.240Z,98523.84
2022-07-29T06:57:57.971Z,98543.16
2022-07-29T07:00:24.770Z,98524.38
2022-07-29T07:02:52.858Z,98530.22
2022-07-29T07:05:19.594Z,98526.31
2022-07-29T07:07:46.225Z,98524.38
2022-07-29T07:10:13.061Z,98536.09
2022-07-29T07:12:39.905Z,98510.78
2022-07-29T07:15:07.247Z,98500.44
2022-07-29T07:17:33.933Z,98529.41
2022-07-29T07:20:00.641Z,98522.06
2022-07-29T07:22:28.297Z,98514.81
2022-07-29T07:24:54.985Z,98524.66
2022-07-29T07:27:21.656Z,98509.19
2022-07-29T07:29:48.354Z,98522.69
2022-07-29T07:32:17.239Z,98521.06
2022-07-29T07:34:44.541Z,98536.44
2022-07-29T07:37:11.424Z,98516.22
2022-07-29T07:39:38.064Z,98518.03
2022-07-29T07:42:04.812Z,98541.06
2022-07-29T07:44:31.498Z,98531.25
2022-07-29T07:46:58.274Z,98527.94
2022-07-29T07:49:30.755Z,98515.66
2022-07-29T07:51:57.818Z,98532.41
2022-07-29T07:54:24.515Z,98510.91
2022-07-29T07:56:53.065Z,98526.03
2022-07-29T07:59:22.271Z,98523.81
2022-07-29T08:01:55.668Z,98503.41
2022-07-29T08:04:28.036Z,98502.63
2022-07-29T08:06:58.726Z,98532.69
2022-07-29T08:09:29.805Z,98526.50
2022-07-29T08:11:59.370Z,98526.66
2022-07-29T08:14:26.251Z,98499.31
2022-07-29T08:16:53.008Z,98496.94
2022-07-29T08:19:19.714Z,98506.09
2022-07-29T08:21:46.486Z,98506.13
2022-07-29T08:24:31.626Z,98523.22
2022-07-29T08:26:58.317Z,98489.56
2022-07-29T08:29:24.980Z,98513.13
2022-07-29T08:31:51.871Z,98517.47
2022-07-29T08:34:18.721Z,98501.06
2022-07-29T08:36:52.728Z,98504.19
2022-07-29T08:39:19.381Z,98501.88
2022-07-29T08:41:56.774Z,98486.84
2022-07-29T08:44:30.373Z,98519.41
2022-07-29T08:46:58.041Z,98505.59
2022-07-29T08:49:24.986Z,98512.69
2022-07-29T08:51:52.442Z,98476.63
2022-07-29T08:54:20.049Z,98468.25
2022-07-29T08:56:51.096Z,98511.41
2022-07-29T08:59:22.007Z,98474.31
2022-07-29T09:01:52.264Z,98506.41
2022-07-29T09:04:20.618Z,98486.78
2022-07-29T09:06:52.880Z,98468.09
2022-07-29T09:09:19.738Z,98475.72
2022-07-29T09:11:46.468Z,98477.28
2022-07-29T09:14:14.730Z,98478.28
2022-07-29T09:16:59.735Z,98478.59
2022-07-29T09:19:35.924Z,98448.66
2022-07-29T09:22:06.104Z,98476.28
2022-07-29T09:24:45.210Z,98488.47
2022-07-29T09:27:23.636Z,98466.09
2022-07-29T09:30:30.320Z,98480.34
2022-07-29T09:33:02.255Z,98468.53
2022-07-29T09:35:30.575Z,98474.81
2022-07-29T09:37:58.109Z,98480.91
2022-07-29T09:40:28.052Z,98471.03
2022-07-29T09:42:58.536Z,98466.84
2022-07-29T09:45:33.678Z,98467.69
2022-07-29T09:48:04.160Z,98461.63
2022-07-29T09:50:39.912Z,98439.75
2022-07-29T09:53:06.976Z,98453.03
2022-07-29T09:55:33.634Z,98439.97
2022-07-29T09:58:18.527Z,98473.78
2022-07-29T10:00:47.240Z,98474.94
2022-07-29T10:03:15.544Z,98472.84
2022-07-29T10:05:43.181Z,98448.38
2022-07-29T10:08:11.154Z,98452.28
2022-07-29T10:10:42.755Z,98454.59
2022-07-29T10:13:16.645Z,98462.16
2022-07-29T10:15:46.345Z,98450.81
2022-07-29T10:18:14.978Z,98459.25
2022-07-29T10:20:41.981Z,98428.19
2022-07-29T10:23:10.286Z,98450.81
2022-07-29T10:25:37.237Z,98433.47
2022-07-29T10:28:04.105Z,98455.13
2022-07-29T10:30:32.032Z,98408.56
2022-07-29T10:33:07.970Z,98437.31
2022-07-29T10:35:41.171Z,98428.00
2022-07-29T10:38:30.434Z,98424.25
2022-07-29T10:41:32.132Z,98435.59
2022-07-29T10:44:23.868Z,98430.19
2022-07-29T10:46:51.690Z,98432.13
2022-07-29T10:49:25.194Z,98419.84
2022-07-29T10:52:01.558Z,98425.25
2022-07-29T10:54:34.782Z,98425.28
2022-07-29T10:57:54.242Z,98419.81
2022-07-29T11:00:30.170Z,98424.16
2022-07-29T11:02:59.414Z,98404.28
2022-07-29T11:08:26.026Z,98429.53
2022-07-29T11:11:20.288Z,98424.00
2022-07-29T11:13:53.362Z,98431.44
2022-07-29T11:16:25.141Z,98418.09
2022-07-29T11:19:21.517Z,98415.97
2022-07-29T11:21:58.289Z,98406.84
2022-07-29T11:24:32.225Z,98411.50
2022-07-29T11:27:17.995Z,98413.59
2022-07-29T11:30:01.296Z,98404.38
2022-07-29T11:32:39.982Z,98404.41
2022-07-29T11:35:17.313Z,98410.94
2022-07-29T11:37:52.566Z,98403.19
2022-07-29T11:40:24.913Z,98396.53
2022-07-29T11:42:52.509Z,98380.47
2022-07-29T11:45:43.336Z,98396.53
2022-07-29T11:48:29.147Z,98398.97
2022-07-29T11:50:59.580Z,98393.25
2022-07-29T11:53:29.269Z,98374.38
2022-07-29T11:56:00.380Z,98377.53
2022-07-29T11:58:28.467Z,98361.50
2022-07-29T12:00:56.264Z,98372.44
2022-07-29T12:03:33.397Z,98356.38
2022-07-29T12:06:02.823Z,98370.16
2022-07-29T12:08:30.663Z,98341.06
2022-07-29T12:10:57.463Z,98323.59
2022-07-29T12:13:36.997Z,98322.16
2022-07-29T12:16:04.273Z,98330.78
2022-07-29T12:18:30.993Z,98334.88
2022-07-29T12:21:03.350Z,98356.00
2022-07-29T12:23:34.291Z,98327.72
2022-07-29T12:26:05.355Z,98352.13
2022-07-29T12:28:39.482Z,98345.91
2022-07-29T12:31:06.621Z,98329.28
2022-07-29T12:33:36.039Z,98325.78
2022-07-29T12:36:07.043Z,98318.47
2022-07-29T12:38:36.027Z,98326.06
2022-07-29T12:41:04.729Z,98336.72
2022-07-29T12:43:32.308Z,98317.66
2022-07-29T12:46:13.587Z,98332.41
2022-07-29T12:48:43.493Z,98323.16
2022-07-29T12:51:11.163Z,98302.72
2022-07-29T12:53:38.276Z,98327.41
2022-07-29T12:56:20.682Z,98288.28
2022-07-29T12:58:51.151Z,98287.91
2022-07-29T13:01:21.166Z,98308.34
2022-07-29T13:04:03.995Z,98302.84
2022-07-29T13:06:46.064Z,98292.56
2022-07-29T13:09:23.524Z,98305.22
2022-07-29T13:11:54.608Z,98309.28
2022-07-29T13:14:51.211Z,98266.25
2022-07-29T13:17:28.446Z,98264.66
2022-07-29T13:20:15.313Z,98277.53
2022-07-29T13:22:43.423Z,98273.19
2022-07-29T13:25:10.699Z,98274.84
2022-07-29T13:27:39.441Z,98253.84
2022-07-29T13:30:09.950Z,98286.50
2022-07-29T13:32:39.942Z,98276.81
2022-07-29T13:35:09.057Z,98250.81
2022-07-29T13:37:39.478Z,98260.88
2022-07-29T13:40:08.379Z,98255.16
2022-07-29T13:42:35.300Z,98270.53
2022-07-29T13:45:03.070Z,98251.88
2022-07-29T13:47:32.099Z,98269.97
2022-07-29T13:50:00.977Z,98233.75
2022-07-29T13:52:27.943Z,98232.28
2022-07-29T13:54:54.582Z,98260.16
2022-07-29T13:57:21.254Z,98253.88
2022-07-29T13:59:52.011Z,98241.94
2022-07-29T14:02:20.872Z,98237.66
2022-07-29T14:04:47.747Z,98247.47
2022-07-29T14:07:16.368Z,98231.50
2022-07-29T14:09:43.562Z,98221.50
2022-07-29T14:12:10.781Z,98251.53
2022-07-29T14:14:37.795Z,98255.00
2022-07-29T14:17:07.357Z,98231.50
2022-07-29T14:19:36.873Z,98239.34
2022-07-29T14:22:08.682Z,98247.28
2022-07-29T14:24:37.802Z,98233.16
2022-07-29T14:27:09.119Z,98219.22
2022-07-29T14:29:38.085Z,98213.66
2022-07-29T14:32:10.171Z,98240.25
2022-07-29T14:34:38.275Z,98239.94
2022-07-29T14:37:08.369Z,98223.03
2022-07-29T14:39:42.516Z,98216.00
2022-07-29T14:42:12.872Z,98246.41
2022-07-29T14:44:41.372Z,98249.88
2022-07-29T14:47:08.697Z,98222.13
2022-07-29T14:49:36.167Z,98225.41
2022-07-29T14:52:03.543Z,98236.91
2022-07-29T14:54:30.272Z,98211.59
2022-07-29T14:56:58.434Z,98216.19
2022-07-29T14:59:26.259Z,98219.00
2022-07-29T15:01:53.331Z,98231.31
2022-07-29T15:04:20.357Z,98212.25
2022-07-29T15:06:49.261Z,98221.97
2022-07-29T15:09:16.012Z,98217.38
2022-07-29T15:11:42.680Z,98213.75
2022-07-29T15:14:09.382Z,98219.31
2022-07-29T15:16:43.558Z,98235.81
2022-07-29T15:19:11.197Z,98216.22
2022-07-29T15:21:48.097Z,98196.50
2022-07-29T15:24:17.407Z,98222.13
2022-07-29T15:26:44.597Z,98206.50
2022-07-29T15:29:11.425Z,98215.72
2022-07-29T15:31:38.275Z,98227.53
2022-07-29T15:34:05.949Z,98209.31
2022-07-29T15:36:51.543Z,98209.16
2022-07-29T15:39:20.588Z,98224.56
2022-07-29T15:41:47.469Z,98218.97
2022-07-29T15:44:14.140Z,98208.00
2022-07-29T15:47:00.574Z,98225.38
2022-07-29T15:49:47.402Z,98240.69
2022-07-29T15:52:18.664Z,98237.88
2022-07-29T15:54:46.003Z,98203.47
2022-07-29T15:57:13.385Z,98237.50
2022-07-29T15:59:40.044Z,98237.50
2022-07-29T16:02:07.099Z,98222.53
2022-07-29T16:04:33.996Z,98227.13
2022-07-29T16:07:00.971Z,98228.06
2022-07-29T16:09:55.846Z,98255.34
2022-07-29T16:12:22.546Z,98237.31
2022-07-29T16:14:51.418Z,98256.06
2022-07-29T16:17:18.719Z,98247.78
2022-07-29T16:19:45.724Z,98261.72
2022-07-29T16:22:13.083Z,98256.47
2022-07-29T16:24:39.770Z,98261.47
2022-07-29T16:27:06.760Z,98255.22
2022-07-29T16:29:33.597Z,98259.44
2022-07-29T16:32:01.086Z,98242.13
2022-07-29T16:34:27.795Z,98238.81
2022-07-29T16:36:54.499Z,98249.78
2022-07-29T16:39:21.126Z,98246.47
2022-07-29T16:41:47.960Z,98257.63
2022-07-29T16:44:16.022Z,98256.75
2022-07-29T16:46:44.852Z,98269.25
2022-07-29T16:49:11.763Z,98234.91
2022-07-29T16:51:45.779Z,98254.41
2022-07-29T16:54:12.426Z,98260.59
2022-07-29T16:56:39.456Z,98262.38
2022-07-29T16:59:06.189Z,98248.72
2022-07-29T17:01:32.887Z,98237.28
2022-07-29T17:04:08.731Z,98243.97
2022-07-29T17:06:40.360Z,98287.38
2022-07-29T17:09:09.352Z,98278.16
2022-07-29T17:11:52.453Z,98269.66
2022-07-29T17:14:23.304Z,98259.09
2022-07-29T17:17:01.074Z,98256.31
2022-07-29T17:19:33.880Z,98253.03
2022-07-29T17:22:10.444Z,98283.53
2022-07-29T17:24:40.878Z,98278.41
2022-07-29T17:27:08.629Z,98271.22
2022-07-29T17:29:35.402Z,98274.09
2022-07-29T17:32:02.213Z,98283.97
2022-07-29T17:34:28.913Z,98270.59
2022-07-29T17:36:55.951Z,98289.44
2022-07-29T17:39:22.940Z,98292.22
2022-07-29T17:41:49.717Z,98294.88
2022-07-29T17:44:16.359Z,98286.75
2022-07-29T17:46:43.161Z,98264.78
2022-07-29T17:49:11.561Z,98301.06
2022-07-29T17:51:39.824Z,98294.50
2022-07-29T17:54:06.535Z,98317.19
2022-07-29T17:56:33.508Z,98289.53
2022-07-29T17:59:01.694Z,98287.97
2022-07-29T18:01:28.948Z,98329.19
2022-07-29T18:03:59.991Z,98325.16
2022-07-29T18:06:28.261Z,98341.72
2022-07-29T18:08:55.771Z,98316.81
2022-07-29T18:11:24.918Z,98346.41
2022-07-29T18:13:53.889Z,98323.69
2022-07-29T18:16:20.620Z,98333.50
2022-07-29T18:18:50.349Z,98317.81
2022-07-29T18:21:17.118Z,98318.28
2022-07-29T18:24:04.000Z,98331.63
2022-07-29T18:26:30.718Z,98338.63
2022-07-29T18:28:57.551Z,98354.72
2022-07-29T18:31:24.388Z,98337.84
2022-07-29T18:33:51.167Z,98339.88
2022-07-29T18:36:18.135Z,98333.03
2022-07-29T18:38:44.794Z,98348.34
2022-07-29T18:41:11.606Z,98352.75
2022-07-29T18:43:38.302Z,98352.25
2022-07-29T18:46:06.680Z,98360.72
2022-07-29T18:48:34.358Z,98353.34
2022-07-29T18:51:01.847Z,98358.91
2022-07-29T18:53:28.537Z,98350.06
2022-07-29T18:56:00.164Z,98360.75
2022-07-29T18:58:27.221Z,98367.41
2022-07-29T19:00:53.888Z,98388.72
2022-07-29T19:03:20.547Z,98383.50
2022-07-29T19:05:47.397Z,98414.44
2022-07-29T19:08:16.671Z,98407.91
2022-07-29T19:10:43.520Z,98380.69
2022-07-29T19:13:10.244Z,98395.31
2022-07-29T19:15:40.215Z,98399.47
2022-07-29T19:18:07.255Z,98393.78
2022-07-29T19:20:34.210Z,98421.09
2022-07-29T19:23:00.918Z,98392.78
2022-07-29T19:25:27.561Z,98388.91
2022-07-29T19:27:54.296Z,98416.47
2022-07-29T19:30:21.161Z,98408.81
2022-07-29T19:32:47.908Z,98390.09
2022-07-29T19:35:25.392Z,98386.78
2022-07-29T19:37:52.553Z,98406.66
2022-07-29T19:40:20.153Z,98421.56
2022-07-29T19:42:48.343Z,98395.66
2022-07-29T19:45:15.061Z,98403.38
2022-07-29T19:47:41.738Z,98393.47
2022-07-29T19:50:09.252Z,98418.03
2022-07-29T19:52:37.259Z,98416.13
2022-07-29T19:55:07.907Z,98394.97
2022-07-29T19:57:40.550Z,98415.88
2022-07-29T20:00:11.428Z,98406.88
2022-07-29T20:02:39.437Z,98420.09
2022-07-29T20:05:06.843Z,98392.56
2022-07-29T20:07:34.021Z,98413.56
2022-07-29T20:10:00.777Z,98415.81
2022-07-29T20:12:27.469Z,98364.44
2022-07-29T20:14:54.246Z,98390.44
2022-07-29T20:17:22.441Z,98402.56
2022-07-29T20:19:50.089Z,98396.78
2022-07-29T20:22:21.117Z,98381.97
2022-07-29T20:24:48.300Z,98377.28
2022-07-29T20:27:14.998Z,98396.91
2022-07-29T20:29:41.933Z,98388.38
2022-07-29T20:32:08.663Z,98392.72
2022-07-29T20:34:35.513Z,98404.88
2022-07-29T20:37:02.801Z,98408.81
2022-07-29T20:39:29.698Z,98387.88
2022-07-29T20:41:56.486Z,98391.47
2022-07-29T20:44:24.436Z,98407.19
2022-07-29T20:46:51.314Z,98398.13
2022-07-29T20:49:18.117Z,98415.22
2022-07-29T20:51:45.051Z,98414.41
2022-07-29T20:54:12.602Z,98387.06
2022-07-29T20:56:39.901Z,98434.34
2022-07-29T20:59:06.617Z,98424.19
2022-07-29T21:01:33.547Z,98426.63
2022-07-29T21:04:01.317Z,98420.59
2022-07-29T21:06:27.989Z,98425.56
2022-07-29T21:08:57.878Z,98426.66
2022-07-29T21:11:43.406Z,98425.03
2022-07-29T21:14:22.327Z,98444.94
2022-07-29T21:16:50.313Z,98402.19
2022-07-29T21:19:17.420Z,98421.25
2022-07-29T21:21:44.167Z,98437.03
2022-07-29T21:24:12.018Z,98425.72
2022-07-29T21:26:39.002Z,98433.19
2022-07-29T21:29:05.917Z,98430.16
2022-07-29T21:31:32.563Z,98435.13
2022-07-29T21:33:59.232Z,98427.38
2022-07-29T21:36:47.717Z,98431.81
2022-07-29T21:39:12.558Z,98424.63
2022-07-29T21:41:39.333Z,98421.59
2022-07-29T21:44:05.948Z,98419.66
2022-07-29T21:46:32.726Z,98455.28
2022-07-29T21:48:59.537Z,98426.81
2022-07-29T21:51:26.241Z,98432.34
2022-07-29T21:53:53.122Z,98426.00
2022-07-29T21:56:19.996Z,98418.00
2022-07-29T21:58:49.251Z,98422.41
2022-07-29T22:01:16.085Z,98435.13
2022-07-29T22:03:42.777Z,98428.22
2022-07-29T22:06:11.208Z,98444.25
2022-07-29T22:08:45.696Z,98440.09
2022-07-29T22:11:13.395Z,98414.69
2022-07-29T22:13:40.328Z,98428.78
2022-07-29T22:16:07.369Z,98431.25
2022-07-29T22:18:34.286Z,98420.97
2022-07-29T22:21:01.018Z,98417.97
2022-07-29T22:23:27.712Z,98421.28
2022-07-29T22:25:54.371Z,98398.06
2022-07-29T22:28:21.264Z,98398.03
2022-07-29T22:30:48.038Z,98427.88
2022-07-29T22:33:17.724Z,98412.38
2022-07-29T22:35:45.220Z,98411.56
2022-07-29T22:38:15.527Z,98430.66
2022-07-29T22:40:42.276Z,98400.53
2022-07-29T22:43:10.723Z,98414.06
2022-07-29T22:45:37.506Z,98397.47
2022-07-29T22:48:05.354Z,98420.38
2022-07-29T22:50:32.044Z,98386.09
2022-07-29T22:52:58.702Z,98384.94
2022-07-29T22:55:25.357Z,98397.13
2022-07-29T22:57:52.085Z,98415.06
2022-07-29T23:00:19.157Z,98396.72
2022-07-29T23:02:45.821Z,98397.81
2022-07-29T23:05:15.991Z,98378.50
2022-07-29T23:07:43.000Z,98357.75
2022-07-29T23:10:09.934Z,98350.84
2022-07-29T23:12:36.849Z,98361.31
2022-07-29T23:15:04.880Z,98393.94
2022-07-29T23:17:32.130Z,98382.59
2022-07-29T23:20:08.044Z,98385.63
2022-07-29T23:22:36.069Z,98356.81
2022-07-29T23:25:03.126Z,98366.25
2022-07-29T23:27:30.029Z,98361.28
2022-07-29T23:29:56.760Z,98373.44
2022-07-29T23:32:23.399Z,98371.53
2022-07-29T23:34:50.055Z,98361.88
2022-07-29T23:37:16.673Z,98348.88
2022-07-29T23:39:43.375Z,98370.50
2022-07-29T23:42:09.998Z,98361.94
2022-07-29T23:44:36.809Z,98362.97
2022-07-29T23:47:03.909Z,98351.13
2022-07-29T23:49:31.062Z,98373.50
2022-07-29T23:51:57.696Z,98354.47
2022-07-29T23:54:24.465Z,98330.41
2022-07-29T23:56:51.082Z,98332.09
2022-07-29T23:59:17.920Z,98338.47
